Time;durP1;ratioP1;P1;durP2;ratioP2;P2;SDS_P1;SDS_P2;PMS_P1;PMS_P2;Temp;Humidity;BMP_temperature;BMP_pressure;BME280_temperature;BME280_humidity;BME280_pressure;Samples;Min_cycle;Max_cycle;Signal;HPM_P1;HPM_P2
2023/12/11 00:00:20;;;;;;;13.50;11.20;;;;;;;;;;85457;211;3031156;-35
2023/12/11 00:03:40;;;;;;;13.30;11.30;;;;;;;;;;85504;211;3028297;-35
2023/12/11 00:06:20;;;;;;;12.20;10.80;;;;;;;;;;85465;211;3029532;-35
2023/12/11 00:08:58;;;;;;;12.90;10.90;;;;;;;;;;85434;211;3030358;-35
2023/12/11 00:11:38;;;;;;;12.70;10.90;;;;;;;;;;85512;211;3031697;-35
2023/12/11 00:14:17;;;;;;;12.30;10.90;;;;;;;;;;85461;211;3028158;-35
2023/12/11 00:16:59;;;;;;;12.90;10.40;;;;;;;;;;85481;211;3027148;-35
2023/12/11 00:19:39;;;;;;;12.80;10.80;;;;;;;;;;85479;211;3030428;-35
2023/12/11 00:22:16;;;;;;;12.30;11.00;;;;;;;;;;85494;211;3031961;-35
2023/12/11 00:24:53;;;;;;;11.70;10.20;;;;;;;;;;85501;211;3028785;-35
2023/12/11 00:27:29;;;;;;;12.50;10.70;;;;;;;;;;85520;211;3028475;-35
2023/12/11 00:30:09;;;;;;;12.20;10.20;;;;;;;;;;85436;211;3031702;-35
2023/12/11 00:32:46;;;;;;;12.40;10.40;;;;;;;;;;85447;211;3031865;-35
2023/12/11 00:35:27;;;;;;;12.40;10.00;;;;;;;;;;85472;211;3028820;-35
2023/12/11 00:38:03;;;;;;;12.10;9.80;;;;;;;;;;85481;211;3026938;-35
2023/12/11 00:40:41;;;;;;;11.70;10.00;;;;;;;;;;85399;211;3030419;-35
2023/12/11 00:43:18;;;;;;;11.90;9.90;;;;;;;;;;85519;211;3031943;-35
2023/12/11 00:45:56;;;;;;;11.60;9.60;;;;;;;;;;85520;211;3028176;-35
2023/12/11 00:48:37;;;;;;;11.80;9.90;;;;;;;;;;85457;211;3028411;-35
2023/12/11 00:51:20;;;;;;;11.70;9.50;;;;;;;;;;85458;211;3039315;-35
2023/12/11 00:54:00;;;;;;;10.90;9.60;;;;;;;;;;85482;211;3032119;-37
2023/12/11 00:56:37;;;;;;;11.30;9.80;;;;;;;;;;85486;211;3028557;-37
2023/12/11 00:59:16;;;;;;;11.00;9.20;;;;;;;;;;85462;211;3027366;-37
2023/12/11 01:01:59;;;;;;;10.90;9.20;;;;;;;;;;85467;211;3031144;-37
2023/12/11 01:04:38;;;;;;;10.90;9.20;;;;;;;;;;85492;211;3032082;-37
2023/12/11 01:07:20;;;;;;;12.70;9.70;;;;;;;;;;85462;211;3028771;-37
2023/12/11 01:10:01;;;;;;;11.40;9.30;;;;;;;;;;85464;211;3028766;-37
2023/12/11 01:12:42;;;;;;;10.80;8.90;;;;;;;;;;85513;211;3030707;-37
2023/12/11 01:15:21;;;;;;;10.50;8.70;;;;;;;;;;85499;211;3031926;-37
2023/12/11 01:18:00;;;;;;;11.20;8.80;;;;;;;;;;85532;211;3028461;-37
2023/12/11 01:20:38;;;;;;;10.90;9.20;;;;;;;;;;85456;211;3027594;-37
2023/12/11 01:23:18;;;;;;;11.20;9.10;;;;;;;;;;85499;211;3030831;-37
2023/12/11 01:25:56;;;;;;;10.80;9.00;;;;;;;;;;85501;211;3031723;-37
2023/12/11 01:28:33;;;;;;;10.50;8.60;;;;;;;;;;85498;211;3028340;-37
2023/12/11 01:31:10;;;;;;;10.80;8.80;;;;;;;;;;85434;211;3027061;-37
2023/12/11 01:33:53;;;;;;;10.30;8.50;;;;;;;;;;85480;211;3031423;-37
2023/12/11 01:36:30;;;;;;;10.10;8.50;;;;;;;;;;85500;211;3031259;-37
2023/12/11 01:39:07;;;;;;;10.00;8.40;;;;;;;;;;85513;211;3028373;-37
2023/12/11 01:41:46;;;;;;;10.60;8.40;;;;;;;;;;85437;211;3027472;-37
2023/12/11 01:44:26;;;;;;;10.40;8.60;;;;;;;;;;85487;211;3030786;-35
2023/12/11 01:47:07;;;;;;;10.20;8.00;;;;;;;;;;85463;211;3031188;-37
2023/12/11 01:49:46;;;;;;;10.20;8.40;;;;;;;;;;85463;211;3028861;-38
2023/12/11 01:52:26;;;;;;;9.70;8.00;;;;;;;;;;85558;211;3032617;-37
2023/12/11 01:55:09;;;;;;;10.30;8.30;;;;;;;;;;85510;211;3030584;-39
2023/12/11 01:57:50;;;;;;;10.30;8.10;;;;;;;;;;85503;211;3031897;-40
2023/12/11 02:00:29;;;;;;;9.50;7.90;;;;;;;;;;85442;211;3029011;-38
2023/12/11 02:03:11;;;;;;;9.10;7.40;;;;;;;;;;85483;211;3028259;-38
2023/12/11 02:05:49;;;;;;;9.30;7.50;;;;;;;;;;85490;211;3031414;-38
2023/12/11 02:08:28;;;;;;;9.30;7.60;;;;;;;;;;85519;211;3031322;-38
2023/12/11 02:11:06;;;;;;;9.80;7.70;;;;;;;;;;85460;211;3027823;-38
2023/12/11 02:13:43;;;;;;;9.30;7.20;;;;;;;;;;85503;211;3027654;-38
2023/12/11 02:16:22;;;;;;;10.00;7.80;;;;;;;;;;85496;211;3031194;-38
2023/12/11 02:19:04;;;;;;;9.50;7.70;;;;;;;;;;85445;212;3032971;-38
2023/12/11 02:21:45;;;;;;;10.00;7.60;;;;;;;;;;85478;212;3028095;-38
2023/12/11 02:24:27;;;;;;;9.50;7.60;;;;;;;;;;85547;212;3027809;-38
2023/12/11 02:27:06;;;;;;;9.60;7.10;;;;;;;;;;85514;212;3030488;-38
2023/12/11 02:29:43;;;;;;;8.80;7.20;;;;;;;;;;85452;212;3031436;-38
2023/12/11 02:32:25;;;;;;;9.20;7.40;;;;;;;;;;85442;212;3028152;-39
2023/12/11 02:35:02;;;;;;;9.40;7.10;;;;;;;;;;84661;212;3706192;-39
2023/12/11 02:37:42;;;;;;;8.70;6.90;;;;;;;;;;85508;211;3030823;-37
2023/12/11 02:40:20;;;;;;;9.50;7.20;;;;;;;;;;85456;211;3031691;-37
2023/12/11 02:42:57;;;;;;;9.10;7.30;;;;;;;;;;85476;212;3028609;-38
2023/12/11 02:45:39;;;;;;;8.90;7.30;;;;;;;;;;85507;212;3027712;-39
2023/12/11 02:48:18;;;;;;;9.10;6.90;;;;;;;;;;85489;212;3030380;-38
2023/12/11 02:50:56;;;;;;;9.50;7.20;;;;;;;;;;85491;212;3031393;-38
2023/12/11 02:53:34;;;;;;;8.50;6.90;;;;;;;;;;85394;212;3028713;-38
2023/12/11 02:56:12;;;;;;;8.50;6.80;;;;;;;;;;85465;212;3027224;-38
2023/12/11 02:58:50;;;;;;;8.30;6.50;;;;;;;;;;85525;211;3030738;-38
2023/12/11 03:01:28;;;;;;;8.40;6.40;;;;;;;;;;85445;211;3031814;-38
2023/12/11 03:04:06;;;;;;;8.00;6.20;;;;;;;;;;85490;212;3034732;-38
2023/12/11 03:06:44;;;;;;;8.30;6.60;;;;;;;;;;85485;212;3027734;-38
2023/12/11 03:09:23;;;;;;;9.00;6.50;;;;;;;;;;85482;212;3030940;-38
2023/12/11 03:12:00;;;;;;;8.70;6.50;;;;;;;;;;85467;211;3031344;-39
2023/12/11 03:14:36;;;;;;;8.50;6.00;;;;;;;;;;85487;212;3028800;-39
2023/12/11 03:17:15;;;;;;;7.80;6.40;;;;;;;;;;85533;211;3027608;-38
2023/12/11 03:19:52;;;;;;;8.90;6.80;;;;;;;;;;85530;211;3030488;-38
2023/12/11 03:22:31;;;;;;;8.30;6.40;;;;;;;;;;85455;211;3031972;-38
2023/12/11 03:25:09;;;;;;;8.30;6.50;;;;;;;;;;85482;211;3028539;-39
2023/12/11 03:27:46;;;;;;;8.70;6.80;;;;;;;;;;85516;211;3027780;-38
2023/12/11 03:30:22;;;;;;;8.20;6.30;;;;;;;;;;85338;211;3030603;-38
2023/12/11 03:32:59;;;;;;;8.20;6.10;;;;;;;;;;85403;211;3032532;-38
2023/12/11 03:35:37;;;;;;;8.30;6.00;;;;;;;;;;85477;211;3028178;-38
2023/12/11 03:38:13;;;;;;;8.00;5.90;;;;;;;;;;85504;211;3027839;-38
2023/12/11 03:40:50;;;;;;;8.80;6.50;;;;;;;;;;85493;211;3030802;-38
2023/12/11 03:43:27;;;;;;;8.10;6.10;;;;;;;;;;85456;211;3031495;-38
2023/12/11 03:46:04;;;;;;;8.20;6.40;;;;;;;;;;85507;211;3029727;-38
2023/12/11 03:48:41;;;;;;;8.20;6.20;;;;;;;;;;85428;211;3027498;-37
2023/12/11 03:51:18;;;;;;;8.20;6.30;;;;;;;;;;85481;211;3031427;-38
2023/12/11 03:53:56;;;;;;;8.30;6.40;;;;;;;;;;85455;211;3032305;-38
2023/12/11 03:56:34;;;;;;;8.80;6.10;;;;;;;;;;85484;211;3028627;-38
2023/12/11 03:59:12;;;;;;;7.50;5.80;;;;;;;;;;85523;211;3027167;-37
2023/12/11 04:01:51;;;;;;;9.50;6.30;;;;;;;;;;85532;211;3031136;-39
2023/12/11 04:04:28;;;;;;;8.90;6.40;;;;;;;;;;85425;211;3032757;-39
2023/12/11 04:07:05;;;;;;;8.40;6.00;;;;;;;;;;85524;211;3028593;-39
2023/12/11 04:09:42;;;;;;;8.80;6.60;;;;;;;;;;85531;211;3027842;-38
2023/12/11 04:12:18;;;;;;;9.10;6.50;;;;;;;;;;85571;211;3031623;-39
2023/12/11 04:14:55;;;;;;;8.20;5.90;;;;;;;;;;85484;211;3031475;-38
2023/12/11 04:17:32;;;;;;;9.10;5.90;;;;;;;;;;85554;210;3028027;-38
2023/12/11 04:20:12;;;;;;;8.80;6.10;;;;;;;;;;85533;211;3027516;-38
2023/12/11 04:22:48;;;;;;;8.60;6.00;;;;;;;;;;85535;211;3031635;-38
2023/12/11 04:25:25;;;;;;;8.40;6.10;;;;;;;;;;85507;211;3032844;-38
2023/12/11 04:28:02;;;;;;;9.20;6.30;;;;;;;;;;85518;211;3028521;-38
2023/12/11 04:30:38;;;;;;;8.90;6.20;;;;;;;;;;85536;211;3027901;-38
2023/12/11 04:33:15;;;;;;;8.70;6.20;;;;;;;;;;85517;211;3031436;-38
2023/12/11 04:35:52;;;;;;;9.00;6.40;;;;;;;;;;85507;211;3038809;-38
2023/12/11 04:38:29;;;;;;;8.00;5.80;;;;;;;;;;85543;211;3029166;-37
2023/12/11 04:41:06;;;;;;;8.60;6.00;;;;;;;;;;85546;211;3027649;-38
2023/12/11 04:43:45;;;;;;;7.90;5.80;;;;;;;;;;85481;211;3030583;-38
2023/12/11 04:46:22;;;;;;;9.00;5.90;;;;;;;;;;85581;211;3037960;-38
2023/12/11 04:49:00;;;;;;;8.60;6.00;;;;;;;;;;85504;211;3028220;-38
2023/12/11 04:51:37;;;;;;;9.30;6.30;;;;;;;;;;85500;211;3027231;-38
2023/12/11 04:54:14;;;;;;;8.90;6.00;;;;;;;;;;85463;211;3030892;-38
2023/12/11 04:56:50;;;;;;;9.00;5.90;;;;;;;;;;85521;211;3032258;-38
2023/12/11 04:59:27;;;;;;;9.20;5.70;;;;;;;;;;85540;211;3027849;-37
2023/12/11 05:02:06;;;;;;;8.00;5.50;;;;;;;;;;85501;211;3027759;-38
2023/12/11 05:04:42;;;;;;;7.30;5.30;;;;;;;;;;85486;211;3030653;-38
2023/12/11 05:07:19;;;;;;;8.00;5.90;;;;;;;;;;85490;211;3031612;-38
2023/12/11 05:09:56;;;;;;;7.50;5.70;;;;;;;;;;85522;211;3028111;-37
2023/12/11 05:12:33;;;;;;;8.30;5.70;;;;;;;;;;85529;211;3028568;-38
2023/12/11 05:15:12;;;;;;;7.80;5.50;;;;;;;;;;85466;211;3032226;-38
2023/12/11 05:17:51;;;;;;;8.30;5.90;;;;;;;;;;85517;211;3031330;-39
2023/12/11 05:20:34;;;;;;;8.20;5.70;;;;;;;;;;85481;211;3027952;-37
2023/12/11 05:23:10;;;;;;;8.00;5.60;;;;;;;;;;85512;211;3027562;-38
2023/12/11 05:25:47;;;;;;;8.20;5.70;;;;;;;;;;85478;211;3030407;-38
2023/12/11 05:28:24;;;;;;;8.00;5.30;;;;;;;;;;85461;211;3031500;-40
2023/12/11 05:31:00;;;;;;;8.00;5.50;;;;;;;;;;85487;211;3028695;-38
2023/12/11 05:33:37;;;;;;;7.70;5.50;;;;;;;;;;85461;211;3027193;-38
2023/12/11 05:36:15;;;;;;;8.00;5.80;;;;;;;;;;85423;211;3031121;-38
2023/12/11 05:38:54;;;;;;;7.90;5.50;;;;;;;;;;85496;211;3032152;-38
2023/12/11 05:41:30;;;;;;;8.00;5.50;;;;;;;;;;85503;211;3027960;-38
2023/12/11 05:44:08;;;;;;;7.50;5.50;;;;;;;;;;85546;211;3027417;-39
2023/12/11 05:46:46;;;;;;;7.90;5.50;;;;;;;;;;85485;211;3030831;-38
2023/12/11 05:49:26;;;;;;;8.10;5.40;;;;;;;;;;85472;211;3031943;-38
2023/12/11 05:52:05;;;;;;;7.30;5.20;;;;;;;;;;85522;211;3028495;-39
2023/12/11 05:54:44;;;;;;;8.20;5.50;;;;;;;;;;85501;211;3027439;-38
2023/12/11 05:57:22;;;;;;;7.70;5.30;;;;;;;;;;85452;211;3030432;-38
2023/12/11 05:59:59;;;;;;;7.60;5.50;;;;;;;;;;85476;211;3031814;-39
2023/12/11 06:02:37;;;;;;;8.10;5.30;;;;;;;;;;85502;211;3028530;-38
2023/12/11 06:05:16;;;;;;;7.30;5.30;;;;;;;;;;85454;211;3027280;-39
2023/12/11 06:07:55;;;;;;;7.70;5.40;;;;;;;;;;85548;211;3037375;-42
2023/12/11 06:10:37;;;;;;;8.10;5.70;;;;;;;;;;85453;211;3031099;-38
2023/12/11 06:13:16;;;;;;;8.20;5.30;;;;;;;;;;85467;211;3027804;-37
2023/12/11 06:15:55;;;;;;;8.20;5.50;;;;;;;;;;85409;211;3027930;-39
2023/12/11 06:18:36;;;;;;;7.10;5.30;;;;;;;;;;85507;211;3031074;-39
2023/12/11 06:21:23;;;;;;;7.20;5.20;;;;;;;;;;85490;211;3031506;-39
2023/12/11 06:24:01;;;;;;;6.90;5.00;;;;;;;;;;85453;211;3027695;-38
2023/12/11 06:26:42;;;;;;;7.80;5.60;;;;;;;;;;85468;211;3027434;-37
2023/12/11 06:29:19;;;;;;;7.50;5.10;;;;;;;;;;85477;211;3030503;-39
2023/12/11 06:31:56;;;;;;;7.90;5.60;;;;;;;;;;85473;211;3031730;-38
2023/12/11 06:34:33;;;;;;;7.90;5.20;;;;;;;;;;85488;211;3028423;-37
2023/12/11 06:37:11;;;;;;;7.90;5.30;;;;;;;;;;85451;211;3027146;-38
2023/12/11 06:39:49;;;;;;;7.60;5.30;;;;;;;;;;85446;211;3030425;-37
2023/12/11 06:42:32;;;;;;;6.80;4.80;;;;;;;;;;85495;211;3032163;-37
2023/12/11 06:45:12;;;;;;;6.80;4.90;;;;;;;;;;85479;211;3028056;-38
2023/12/11 06:47:50;;;;;;;6.70;5.00;;;;;;;;;;85517;211;3028211;-38
2023/12/11 06:50:29;;;;;;;7.60;5.00;;;;;;;;;;85527;211;3030912;-37
2023/12/11 06:53:08;;;;;;;7.40;5.00;;;;;;;;;;85508;211;3032957;-35
2023/12/11 06:55:45;;;;;;;7.60;4.80;;;;;;;;;;85517;211;3028832;-35
2023/12/11 06:58:22;;;;;;;7.80;5.40;;;;;;;;;;85459;211;3027491;-35
2023/12/11 07:01:03;;;;;;;7.30;4.70;;;;;;;;;;85447;211;3031208;-39
2023/12/11 07:03:41;;;;;;;7.10;4.80;;;;;;;;;;85468;211;3031383;-38
2023/12/11 07:06:27;;;;;;;6.70;4.80;;;;;;;;;;85475;211;3028476;-38
2023/12/11 07:09:05;;;;;;;6.80;4.70;;;;;;;;;;85469;211;3027069;-38
2023/12/11 07:11:43;;;;;;;7.10;4.80;;;;;;;;;;85475;211;3030589;-37
2023/12/11 07:14:24;;;;;;;6.80;4.70;;;;;;;;;;85561;209;3032136;-34
2023/12/11 07:17:04;;;;;;;7.20;4.60;;;;;;;;;;85413;210;3028094;-36
2023/12/11 07:19:50;;;;;;;7.50;4.80;;;;;;;;;;85533;210;3033882;-35
2023/12/11 07:22:28;;;;;;;7.00;4.40;;;;;;;;;;85596;211;3030617;-37
2023/12/11 07:25:08;;;;;;;7.40;4.40;;;;;;;;;;85462;211;3031234;-36
2023/12/11 07:27:49;;;;;;;7.30;4.20;;;;;;;;;;85445;211;3028668;-35
2023/12/11 07:30:29;;;;;;;6.80;4.40;;;;;;;;;;85503;211;3027958;-35
2023/12/11 07:33:06;;;;;;;7.60;4.50;;;;;;;;;;85671;210;3031080;-36
2023/12/11 07:35:51;;;;;;;6.90;4.60;;;;;;;;;;85671;210;3031349;-36
2023/12/11 07:38:31;;;;;;;6.40;4.30;;;;;;;;;;85608;210;3028302;-35
2023/12/11 07:41:12;;;;;;;6.80;4.60;;;;;;;;;;85602;210;3027904;-36
2023/12/11 07:43:56;;;;;;;7.30;5.00;;;;;;;;;;85667;210;3030846;-36
2023/12/11 07:46:43;;;;;;;6.80;4.60;;;;;;;;;;85635;210;3031836;-36
2023/12/11 07:49:24;;;;;;;6.40;4.30;;;;;;;;;;85421;210;3028428;-42
2023/12/11 07:52:03;;;;;;;7.20;4.70;;;;;;;;;;85518;210;3027768;-42
2023/12/11 07:54:51;;;;;;;7.50;4.60;;;;;;;;;;85525;210;3030338;-44
2023/12/11 07:57:34;;;;;;;7.30;4.60;;;;;;;;;;85497;210;3031423;-43
2023/12/11 08:00:17;;;;;;;7.40;4.70;;;;;;;;;;85439;210;3028331;-42
2023/12/11 08:03:04;;;;;;;6.90;4.60;;;;;;;;;;85502;210;3027050;-45
2023/12/11 08:05:48;;;;;;;6.80;4.50;;;;;;;;;;85516;210;3030900;-42
2023/12/11 08:08:28;;;;;;;7.70;4.80;;;;;;;;;;85469;210;3032002;-47
2023/12/11 08:11:06;;;;;;;6.70;4.30;;;;;;;;;;85550;210;3027945;-41
2023/12/11 08:13:48;;;;;;;7.30;4.40;;;;;;;;;;85487;210;3027227;-41
2023/12/11 08:16:34;;;;;;;6.40;4.30;;;;;;;;;;85512;210;3031133;-44
2023/12/11 08:19:14;;;;;;;6.90;4.60;;;;;;;;;;85488;210;3031485;-42
2023/12/11 08:21:54;;;;;;;6.80;4.50;;;;;;;;;;85534;210;3028620;-43
2023/12/11 08:24:31;;;;;;;6.70;4.50;;;;;;;;;;85513;210;3027503;-40
2023/12/11 08:27:09;;;;;;;7.20;4.70;;;;;;;;;;85606;210;3030683;-40
2023/12/11 08:29:48;;;;;;;6.80;4.40;;;;;;;;;;85514;210;3032843;-41
2023/12/11 08:32:36;;;;;;;6.70;4.60;;;;;;;;;;85622;210;3028124;-41
2023/12/11 08:35:18;;;;;;;6.50;4.50;;;;;;;;;;85600;210;3026973;-45
2023/12/11 08:37:57;;;;;;;6.80;4.20;;;;;;;;;;85489;210;3031690;-38
2023/12/11 08:40:35;;;;;;;7.20;4.60;;;;;;;;;;85463;210;3032941;-35
2023/12/11 08:43:20;;;;;;;6.60;4.30;;;;;;;;;;85466;210;3027933;-38
2023/12/11 08:45:57;;;;;;;;;;;;;;;;;;85451;210;3027942;-43
2023/12/11 08:48:40;;;;;;;7.30;4.10;;;;;;;;;;86292;210;3011412;-37
2023/12/11 08:51:21;;;;;;;7.50;4.50;;;;;;;;;;85420;210;3030420;-37
2023/12/11 08:54:03;;;;;;;7.90;4.00;;;;;;;;;;85421;210;3031761;-42
2023/12/11 08:56:44;;;;;;;7.30;4.40;;;;;;;;;;85461;210;3028945;-42
2023/12/11 08:59:24;;;;;;;7.20;4.40;;;;;;;;;;85439;211;3028082;-41
2023/12/11 09:02:12;;;;;;;6.70;4.10;;;;;;;;;;85484;210;3030683;-41
2023/12/11 09:04:52;;;;;;;8.20;4.40;;;;;;;;;;85479;210;3031085;-40
2023/12/11 09:07:37;;;;;;;7.00;4.20;;;;;;;;;;85479;210;3028031;-40
2023/12/11 09:10:18;;;;;;;7.90;4.40;;;;;;;;;;85437;210;3027677;-38
2023/12/11 09:12:59;;;;;;;7.20;4.50;;;;;;;;;;85496;210;3032089;-39
2023/12/11 09:15:38;;;;;;;9.00;4.60;;;;;;;;;;85556;210;3032071;-38
2023/12/11 09:18:20;;;;;;;7.70;4.40;;;;;;;;;;85576;210;3028134;-39
2023/12/11 09:21:02;;;;;;;7.30;4.30;;;;;;;;;;85452;210;3027968;-38
2023/12/11 09:23:40;;;;;;;8.80;4.60;;;;;;;;;;85505;210;3030530;-39
2023/12/11 09:26:18;;;;;;;8.60;4.30;;;;;;;;;;85482;210;3031989;-36
2023/12/11 09:28:56;;;;;;;7.90;4.80;;;;;;;;;;85432;210;3027881;-36
2023/12/11 09:31:38;;;;;;;7.20;4.30;;;;;;;;;;85472;210;3027222;-36
2023/12/11 09:34:21;;;;;;;7.50;4.30;;;;;;;;;;85513;210;3030519;-40
2023/12/11 09:37:01;;;;;;;7.60;4.30;;;;;;;;;;85467;210;3031235;-41
2023/12/11 09:39:44;;;;;;;7.10;4.40;;;;;;;;;;85524;210;3028359;-38
2023/12/11 09:42:25;;;;;;;6.90;4.40;;;;;;;;;;85484;210;3027189;-38
2023/12/11 09:45:10;;;;;;;7.20;4.40;;;;;;;;;;85426;210;3030838;-39
2023/12/11 09:47:56;;;;;;;6.90;4.10;;;;;;;;;;85534;210;3034064;-37
2023/12/11 09:50:50;;;;;;;7.10;4.10;;;;;;;;;;85443;210;3029625;-36
2023/12/11 09:53:34;;;;;;;6.90;4.40;;;;;;;;;;85445;210;3027124;-37
2023/12/11 09:56:16;;;;;;;7.70;4.30;;;;;;;;;;85465;210;3031154;-38
2023/12/11 09:58:56;;;;;;;7.10;4.20;;;;;;;;;;85460;210;3033582;-38
2023/12/11 10:01:38;;;;;;;7.30;3.90;;;;;;;;;;85473;210;3027986;-38
2023/12/11 10:04:21;;;;;;;7.00;4.10;;;;;;;;;;85552;210;3027417;-38
2023/12/11 10:06:59;;;;;;;6.50;3.80;;;;;;;;;;85404;211;3030849;-38
2023/12/11 10:09:36;;;;;;;7.10;4.30;;;;;;;;;;85501;211;3031545;-38
2023/12/11 10:12:15;;;;;;;6.70;4.00;;;;;;;;;;85425;211;3028467;-38
2023/12/11 10:15:07;;;;;;;7.30;3.70;;;;;;;;;;85474;211;3027501;-38
2023/12/11 10:59:12;;;;;;;6.40;4.10;;;;;;;;;;85156;244;3011207;-37
2023/12/11 11:01:52;;;;;;;6.10;3.70;;;;;;;;;;84787;219;3028920;-35
2023/12/11 11:04:40;;;;;;;7.10;4.00;;;;;;;;;;84830;217;3027176;-39
2023/12/11 11:07:27;;;;;;;5.40;3.60;;;;;;;;;;85058;217;3031386;-38
2023/12/11 11:10:15;;;;;;;6.00;3.60;;;;;;;;;;85023;217;3031941;-38
2023/12/11 11:13:00;;;;;;;6.30;3.90;;;;;;;;;;85076;214;3029489;-38
2023/12/11 11:15:38;;;;;;;5.70;3.50;;;;;;;;;;85251;214;3027095;-37
2023/12/11 11:18:14;;;;;;;6.10;3.80;;;;;;;;;;85199;214;3031196;-38
2023/12/11 11:21:14;;;;;;;5.40;3.50;;;;;;;;;;85247;214;3031654;-40
2023/12/11 11:23:52;;;;;;;6.30;3.70;;;;;;;;;;85280;214;3028195;-38
2023/12/11 11:26:39;;;;;;;5.90;3.60;;;;;;;;;;85238;214;3027210;-37
2023/12/11 11:29:41;;;;;;;5.70;3.70;;;;;;;;;;85229;214;3031131;-36
2023/12/11 11:32:22;;;;;;;7.00;4.00;;;;;;;;;;85264;215;3031164;-41
2023/12/11 11:34:59;;;;;;;7.10;4.30;;;;;;;;;;85270;214;3029139;-39
2023/12/11 11:37:53;;;;;;;6.10;4.00;;;;;;;;;;85266;214;3027949;-38
2023/12/11 11:40:38;;;;;;;6.30;3.90;;;;;;;;;;85320;214;3031310;-39
2023/12/11 11:43:16;;;;;;;7.20;4.40;;;;;;;;;;85333;214;3031744;-38
2023/12/11 11:45:58;;;;;;;7.90;4.40;;;;;;;;;;85338;214;3028392;-37
2023/12/11 11:48:45;;;;;;;6.80;4.40;;;;;;;;;;85284;213;3027972;-37
2023/12/11 11:51:22;;;;;;;6.60;4.00;;;;;;;;;;85352;213;3036757;-44
2023/12/11 11:54:02;;;;;;;7.70;4.60;;;;;;;;;;85334;214;3031730;-39
2023/12/11 11:56:48;;;;;;;7.60;4.20;;;;;;;;;;85337;214;3028348;-38
2023/12/11 11:59:26;;;;;;;5.90;4.00;;;;;;;;;;85328;214;3027500;-41
2023/12/11 12:02:03;;;;;;;6.20;4.10;;;;;;;;;;85372;214;3030617;-40
2023/12/11 12:04:40;;;;;;;5.60;3.80;;;;;;;;;;85343;214;3031409;-38
2023/12/11 12:07:16;;;;;;;5.60;3.70;;;;;;;;;;85369;214;3028376;-39
2023/12/11 12:09:59;;;;;;;5.30;3.50;;;;;;;;;;85266;214;3027185;-40
2023/12/11 12:12:38;;;;;;;;;;;;;;;;;;85263;214;3030819;-39
2023/12/11 12:15:14;;;;;;;5.60;3.40;;;;;;;;;;85249;214;3031344;-39
2023/12/11 12:17:51;;;;;;;5.90;3.60;;;;;;;;;;85265;214;3028601;-36
2023/12/11 12:20:28;;;;;;;5.30;3.50;;;;;;;;;;85214;214;3027610;-40
2023/12/11 12:23:07;;;;;;;6.80;3.70;;;;;;;;;;85263;214;3031069;-42
2023/12/11 12:25:44;;;;;;;5.70;3.50;;;;;;;;;;85255;214;3031584;-39
2023/12/11 12:28:23;;;;;;;5.70;3.70;;;;;;;;;;85268;214;3028253;-40
2023/12/11 12:31:03;;;;;;;5.90;3.50;;;;;;;;;;85180;214;3028256;-38
2023/12/11 12:33:41;;;;;;;5.60;3.50;;;;;;;;;;85257;214;3031176;-37
2023/12/11 12:36:18;;;;;;;6.10;3.50;;;;;;;;;;85260;214;3031526;-37
2023/12/11 12:39:00;;;;;;;6.70;3.70;;;;;;;;;;85625;211;3028035;-37
2023/12/11 12:41:38;;;;;;;6.20;3.60;;;;;;;;;;85559;211;3027493;-38
2023/12/11 12:44:15;;;;;;;5.60;3.80;;;;;;;;;;85651;211;3030733;-36
2023/12/11 12:46:52;;;;;;;5.50;3.40;;;;;;;;;;85616;211;3031194;-37
2023/12/11 12:49:28;;;;;;;6.30;3.60;;;;;;;;;;85678;211;3028555;-36
2023/12/11 12:52:05;;;;;;;6.00;3.60;;;;;;;;;;85631;211;3027459;-38
2023/12/11 12:54:58;;;;;;;5.80;3.40;;;;;;;;;;85622;211;3030686;-39
2023/12/11 12:57:43;;;;;;;5.20;3.00;;;;;;;;;;85619;211;3031163;-39
2023/12/11 13:00:24;;;;;;;6.00;3.60;;;;;;;;;;85615;211;3028749;-37
2023/12/11 13:03:00;;;;;;;6.50;3.70;;;;;;;;;;85717;211;3032841;-40
2023/12/11 13:05:45;;;;;;;6.00;3.70;;;;;;;;;;85621;210;3030524;-38
2023/12/11 13:08:23;;;;;;;6.60;4.00;;;;;;;;;;85617;211;3031362;-39
2023/12/11 13:11:00;;;;;;;6.20;3.60;;;;;;;;;;85560;211;3028621;-40
2023/12/11 13:13:36;;;;;;;6.00;3.70;;;;;;;;;;85562;211;3027199;-42
2023/12/11 13:16:13;;;;;;;6.10;3.50;;;;;;;;;;85620;211;3030637;-44
2023/12/11 13:18:54;;;;;;;6.50;3.90;;;;;;;;;;85633;211;3031842;-39
2023/12/11 13:21:31;;;;;;;6.40;3.80;;;;;;;;;;85605;211;3028271;-38
2023/12/11 13:24:10;;;;;;;6.10;3.90;;;;;;;;;;85649;211;3027553;-41
2023/12/11 13:26:48;;;;;;;7.10;4.60;;;;;;;;;;85635;211;3030124;-39
2023/12/11 13:29:25;;;;;;;6.40;3.90;;;;;;;;;;85579;211;3031664;-35
2023/12/11 13:32:03;;;;;;;6.20;3.60;;;;;;;;;;85614;211;3028704;-39
2023/12/11 13:34:39;;;;;;;5.80;3.40;;;;;;;;;;85606;211;3027459;-39
2023/12/11 13:37:21;;;;;;;5.20;3.30;;;;;;;;;;85590;211;3030451;-42
2023/12/11 13:40:00;;;;;;;5.80;3.50;;;;;;;;;;85686;211;3031368;-37
2023/12/11 13:42:36;;;;;;;6.20;3.90;;;;;;;;;;85598;211;3028771;-37
2023/12/11 13:45:13;;;;;;;5.80;3.40;;;;;;;;;;85608;211;3027814;-39
2023/12/11 13:47:51;;;;;;;7.80;4.20;;;;;;;;;;85633;211;3030882;-41
2023/12/11 13:50:30;;;;;;;6.00;3.50;;;;;;;;;;85588;211;3031770;-42
2023/12/11 13:53:07;;;;;;;6.70;4.00;;;;;;;;;;85574;211;3027844;-41
2023/12/11 13:55:46;;;;;;;5.90;3.90;;;;;;;;;;85578;211;3026803;-38
2023/12/11 13:58:27;;;;;;;5.50;3.50;;;;;;;;;;85621;211;3030900;-39
2023/12/11 14:01:06;;;;;;;6.10;3.50;;;;;;;;;;85699;211;3031743;-42
2023/12/11 14:03:45;;;;;;;6.60;4.00;;;;;;;;;;85576;211;3027885;-39
2023/12/11 14:06:23;;;;;;;6.40;3.80;;;;;;;;;;85665;211;3028100;-39
2023/12/11 14:09:03;;;;;;;6.40;3.90;;;;;;;;;;85663;211;3031503;-40
2023/12/11 14:11:40;;;;;;;6.00;3.90;;;;;;;;;;85690;211;3031004;-40
2023/12/11 14:14:20;;;;;;;6.00;3.90;;;;;;;;;;85572;211;3028871;-40
2023/12/11 14:16:59;;;;;;;6.60;4.00;;;;;;;;;;85614;211;3027457;-41
2023/12/11 14:19:36;;;;;;;5.90;3.70;;;;;;;;;;85508;211;3031764;-37
2023/12/11 14:22:13;;;;;;;6.40;4.70;;;;;;;;;;85623;210;3032204;-38
2023/12/11 14:24:49;;;;;;;7.10;4.00;;;;;;;;;;85595;210;3034391;-40
2023/12/11 14:27:29;;;;;;;6.50;4.20;;;;;;;;;;85627;210;3028185;-41
2023/12/11 14:30:09;;;;;;;5.80;3.70;;;;;;;;;;85592;210;3030896;-39
2023/12/11 14:32:54;;;;;;;6.40;3.70;;;;;;;;;;85578;210;3032128;-38
2023/12/11 14:35:32;;;;;;;6.50;4.20;;;;;;;;;;85623;210;3035454;-36
2023/12/11 14:38:09;;;;;;;5.60;3.40;;;;;;;;;;85618;210;3027364;-39
2023/12/11 14:40:49;;;;;;;6.10;4.00;;;;;;;;;;85558;210;3031271;-38
2023/12/11 14:43:27;;;;;;;5.50;3.50;;;;;;;;;;85559;210;3031596;-38
2023/12/11 14:46:04;;;;;;;6.40;4.30;;;;;;;;;;85573;210;3029136;-40
2023/12/11 14:48:41;;;;;;;5.90;3.60;;;;;;;;;;85582;210;3028061;-41
2023/12/11 14:51:19;;;;;;;6.00;3.90;;;;;;;;;;85604;210;3030912;-41
2023/12/11 14:53:58;;;;;;;5.90;3.90;;;;;;;;;;85518;210;3031770;-41
2023/12/11 14:56:36;;;;;;;5.90;3.60;;;;;;;;;;85693;210;3027813;-39
2023/12/11 14:59:16;;;;;;;5.90;3.50;;;;;;;;;;85620;211;3026928;-41
2023/12/11 15:01:55;;;;;;;6.40;3.80;;;;;;;;;;85514;211;3030584;-36
2023/12/11 15:04:31;;;;;;;6.30;3.60;;;;;;;;;;85632;211;3031146;-39
2023/12/11 15:07:11;;;;;;;5.90;3.60;;;;;;;;;;85635;211;3028456;-37
2023/12/11 15:09:47;;;;;;;6.30;3.60;;;;;;;;;;85542;211;3027590;-38
2023/12/11 15:12:27;;;;;;;5.80;3.60;;;;;;;;;;85575;211;3030528;-37
2023/12/11 15:15:04;;;;;;;5.70;3.40;;;;;;;;;;85585;211;3031800;-38
2023/12/11 15:17:41;;;;;;;6.00;3.90;;;;;;;;;;85522;211;3029249;-38
2023/12/11 15:20:23;;;;;;;6.10;3.50;;;;;;;;;;85648;211;3028964;-40
2023/12/11 15:23:01;;;;;;;6.00;3.70;;;;;;;;;;85583;211;3031764;-40
2023/12/11 15:25:38;;;;;;;6.30;3.60;;;;;;;;;;85570;211;3031274;-37
2023/12/11 15:28:19;;;;;;;5.70;3.50;;;;;;;;;;85574;211;3027783;-39
2023/12/11 15:30:57;;;;;;;6.00;3.70;;;;;;;;;;85611;211;3027411;-38
2023/12/11 15:33:49;;;;;;;6.20;3.80;;;;;;;;;;85494;212;3030623;-42
2023/12/11 15:36:26;;;;;;;6.10;3.50;;;;;;;;;;85497;211;3031606;-41
2023/12/11 15:39:03;;;;;;;5.80;3.80;;;;;;;;;;85634;211;3028866;-37
2023/12/11 15:41:42;;;;;;;6.50;3.60;;;;;;;;;;85622;211;3027110;-36
2023/12/11 15:44:20;;;;;;;5.80;3.50;;;;;;;;;;85647;211;3030424;-38
2023/12/11 15:47:03;;;;;;;5.50;3.40;;;;;;;;;;85606;211;3031730;-38
2023/12/11 15:49:41;;;;;;;5.70;3.60;;;;;;;;;;85690;211;3028260;-39
2023/12/11 15:52:23;;;;;;;5.40;3.40;;;;;;;;;;85642;211;3027248;-38
2023/12/11 15:54:59;;;;;;;6.40;3.60;;;;;;;;;;85565;211;3031244;-39
2023/12/11 15:57:40;;;;;;;6.00;3.80;;;;;;;;;;85559;211;3031699;-38
2023/12/11 16:00:18;;;;;;;6.00;3.50;;;;;;;;;;85616;211;3029112;-38
2023/12/11 16:02:57;;;;;;;6.40;3.60;;;;;;;;;;85578;211;3027709;-38
2023/12/11 16:05:33;;;;;;;5.60;3.70;;;;;;;;;;85635;211;3031119;-39
2023/12/11 16:08:10;;;;;;;5.60;3.50;;;;;;;;;;85648;211;3031903;-38
2023/12/11 16:10:48;;;;;;;5.70;3.60;;;;;;;;;;85582;211;3028373;-39
2023/12/11 16:13:27;;;;;;;6.40;3.80;;;;;;;;;;85609;211;3027681;-39
2023/12/11 16:16:03;;;;;;;5.80;3.70;;;;;;;;;;85563;211;3031091;-40
2023/12/11 16:18:44;;;;;;;6.40;3.70;;;;;;;;;;85629;211;3031619;-39
2023/12/11 16:21:22;;;;;;;5.90;3.80;;;;;;;;;;85609;211;3028208;-39